Time;durP1;ratioP1;P1;durP2;ratioP2;P2;SDS_P1;SDS_P2;PMS_P1;PMS_P2;Temp;Humidity;BMP_temperature;BMP_pressure;BME280_temperature;BME280_humidity;BME280_pressure;Samples;Min_cycle;Max_cycle;Signal;HPM_P1;HPM_P2
2022/05/28 00:01:21;;;;;;;5.57;2.70;;;12.20;67.70;;;;;;5047478;28;46358;-62
2022/05/28 00:03:48;;;;;;;5.00;2.40;;;12.20;67.80;;;;;;5051713;28;46411;-62
2022/05/28 00:06:20;;;;;;;3.90;2.30;;;12.10;67.60;;;;;;5047400;28;46427;-63
2022/05/28 00:08:46;;;;;;;4.27;2.80;;;12.10;67.80;;;;;;5050485;28;47080;-61
2022/05/28 00:11:15;;;;;;;6.80;2.80;;;12.00;68.00;;;;;;5044530;28;46296;-62
2022/05/28 00:13:41;;;;;;;5.63;2.73;;;12.00;68.00;;;;;;5049101;28;46394;-62
2022/05/28 00:16:07;;;;;;;5.17;2.43;;;11.90;68.10;;;;;;5047510;28;45856;-62
2022/05/28 00:18:32;;;;;;;4.03;2.70;;;11.90;68.10;;;;;;5054373;28;47249;-62
2022/05/28 00:20:58;;;;;;;4.70;2.83;;;11.90;68.10;;;;;;5051609;28;46416;-63
2022/05/28 00:23:24;;;;;;;5.00;2.57;;;11.80;68.00;;;;;;5056516;28;46383;-63
2022/05/28 00:25:50;;;;;;;5.47;2.90;;;11.80;68.10;;;;;;5052444;28;46719;-63
2022/05/28 00:28:15;;;;;;;7.27;2.80;;;11.80;68.10;;;;;;5054860;28;47434;-62
2022/05/28 00:30:41;;;;;;;4.20;2.73;;;11.80;68.20;;;;;;5051218;28;46189;-61
2022/05/28 00:33:07;;;;;;;6.00;2.70;;;11.80;68.20;;;;;;5050272;28;46614;-62
2022/05/28 00:35:33;;;;;;;4.77;2.63;;;11.70;68.00;;;;;;5057264;28;46575;-62
2022/05/28 00:37:58;;;;;;;6.50;3.17;;;11.70;68.20;;;;;;5059748;28;47269;-62
2022/05/28 00:40:26;;;;;;;4.80;2.57;;;11.70;68.20;;;;;;5052423;28;46458;-62
2022/05/28 00:42:52;;;;;;;4.90;3.00;;;11.60;68.20;;;;;;5051226;28;46439;-62
2022/05/28 00:45:18;;;;;;;4.30;2.83;;;11.70;68.30;;;;;;5048278;28;46039;-62
2022/05/28 00:47:48;;;;;;;5.43;2.90;;;11.60;68.40;;;;;;5052156;28;46369;-62
2022/05/28 00:50:16;;;;;;;6.00;2.93;;;11.60;68.40;;;;;;5047851;28;46397;-62
2022/05/28 00:52:42;;;;;;;6.03;2.80;;;11.60;68.50;;;;;;5049936;28;46366;-62
2022/05/28 00:55:08;;;;;;;7.10;3.17;;;11.50;68.40;;;;;;5054685;28;46408;-63
2022/05/28 00:57:35;;;;;;;7.57;2.77;;;11.50;68.50;;;;;;5057681;28;46624;-62
2022/05/28 01:00:01;;;;;;;9.93;3.43;;;11.40;68.40;;;;;;5053020;28;46436;-62
2022/05/28 01:02:51;;;;;;;4.43;2.80;;;11.40;68.50;;;;;;5059946;28;46432;-62
2022/05/28 01:05:26;;;;;;;7.47;3.20;;;11.40;68.60;;;;;;5053199;28;46294;-63
2022/05/28 01:08:32;;;;;;;4.37;2.70;;;11.50;68.40;;;;;;5057235;28;46482;-62
2022/05/28 01:11:05;;;;;;;11.00;3.20;;;11.70;67.90;;;;;;5053898;28;46391;-62
2022/05/28 01:13:40;;;;;;;5.10;2.90;;;11.90;66.80;;;;;;5054413;28;46384;-62
2022/05/28 01:16:14;;;;;;;7.43;2.80;;;12.10;66.40;;;;;;5054415;28;46445;-62
2022/05/28 01:18:48;;;;;;;4.23;2.80;;;12.20;66.40;;;;;;5053341;28;47110;-62
2022/05/28 01:21:42;;;;;;;5.33;3.17;;;12.40;66.00;;;;;;5054936;28;46425;-62
2022/05/28 01:24:38;;;;;;;9.20;3.20;;;12.60;65.70;;;;;;5044134;28;46049;-63
2022/05/28 01:27:12;;;;;;;4.17;2.70;;;12.70;65.40;;;;;;5057566;28;46533;-63
2022/05/28 01:29:43;;;;;;;6.37;3.07;;;12.70;65.10;;;;;;5046934;28;46209;-63
2022/05/28 01:32:10;;;;;;;4.10;2.90;;;12.70;65.30;;;;;;5051458;28;46384;-62
2022/05/28 01:34:37;;;;;;;3.67;2.40;;;12.70;65.80;;;;;;5054745;28;46482;-62
2022/05/28 01:37:04;;;;;;;3.20;2.20;;;12.70;66.00;;;;;;5054691;28;46434;-63
2022/05/28 01:39:31;;;;;;;4.10;2.57;;;12.70;66.10;;;;;;5051426;28;46307;-62
2022/05/28 01:41:57;;;;;;;5.97;2.80;;;12.80;66.30;;;;;;5057221;28;46457;-63
2022/05/28 01:44:24;;;;;;;3.90;2.60;;;12.80;66.10;;;;;;5048960;28;46240;-63
2022/05/28 01:46:51;;;;;;;5.77;2.70;;;12.80;66.10;;;;;;5053342;28;46426;-63
2022/05/28 01:49:19;;;;;;;6.80;3.00;;;12.90;66.20;;;;;;5046984;28;46638;-62
2022/05/28 01:51:56;;;;;;;4.10;3.03;;;12.90;67.00;;;;;;5054301;28;46692;-62
2022/05/28 01:54:25;;;;;;;5.00;3.00;;;13.00;65.70;;;;;;5050439;28;46239;-62
2022/05/28 01:56:53;;;;;;;4.83;3.20;;;13.10;65.40;;;;;;5052355;28;46374;-62
2022/05/28 01:59:27;;;;;;;6.47;2.70;;;13.20;65.20;;;;;;5049578;28;46611;-63
2022/05/28 02:01:55;;;;;;;4.00;2.70;;;13.30;65.00;;;;;;5047493;28;46499;-62
2022/05/28 02:04:21;;;;;;;4.60;3.20;;;13.30;64.90;;;;;;5053676;28;46422;-62
2022/05/28 02:06:47;;;;;;;6.37;3.17;;;13.40;64.90;;;;;;5046124;28;46563;-62
2022/05/28 02:09:25;;;;;;;5.77;2.80;;;13.40;64.70;;;;;;5056885;28;47198;-62
2022/05/28 02:12:16;;;;;;;4.53;2.90;;;13.40;64.80;;;;;;5054031;28;45941;-61
2022/05/28 02:15:15;;;;;;;4.80;2.67;;;13.40;65.00;;;;;;5057009;28;46588;-61
2022/05/28 02:17:50;;;;;;;7.93;2.77;;;13.40;64.90;;;;;;5045780;28;46639;-62
2022/05/28 02:20:31;;;;;;;8.43;3.20;;;13.40;64.90;;;;;;5051239;28;47990;-61
2022/05/28 02:23:21;;;;;;;6.47;3.07;;;13.40;65.00;;;;;;5049614;28;46432;-62
2022/05/28 02:25:58;;;;;;;4.50;3.00;;;13.40;65.20;;;;;;5051804;28;45844;-61
2022/05/28 02:28:27;;;;;;;4.17;2.90;;;13.40;65.20;;;;;;5050174;28;46404;-62
2022/05/28 02:31:02;;;;;;;5.80;3.30;;;13.40;65.10;;;;;;5051664;28;46440;-62
2022/05/28 02:33:29;;;;;;;5.33;3.30;;;13.40;65.00;;;;;;5048317;28;46382;-61
2022/05/28 02:35:55;;;;;;;7.40;3.50;;;13.40;65.00;;;;;;5050370;28;46611;-63
2022/05/28 02:38:21;;;;;;;7.70;3.20;;;13.40;65.00;;;;;;5050203;28;46378;-63
2022/05/28 02:40:46;;;;;;;5.00;3.10;;;13.40;65.00;;;;;;5047190;28;47208;-61
2022/05/28 02:43:12;;;;;;;5.00;3.13;;;13.40;65.00;;;;;;5052196;28;46440;-62
2022/05/28 02:45:39;;;;;;;6.60;3.50;;;13.40;65.10;;;;;;5047541;28;46625;-62
2022/05/28 02:48:04;;;;;;;4.50;3.40;;;13.40;65.10;;;;;;5054612;28;46361;-62
2022/05/28 02:50:30;;;;;;;4.43;2.70;;;13.40;65.00;;;;;;5054982;28;46344;-61
2022/05/28 02:52:56;;;;;;;7.20;3.73;;;13.40;65.00;;;;;;5052857;28;46279;-62
2022/05/28 02:55:23;;;;;;;4.80;3.30;;;13.40;64.90;;;;;;5051890;28;46471;-63
2022/05/28 02:57:48;;;;;;;7.00;3.60;;;13.50;64.80;;;;;;5052801;28;46565;-62
2022/05/28 03:00:15;;;;;;;5.63;3.23;;;13.50;64.90;;;;;;5049850;28;46378;-63
2022/05/28 03:02:42;;;;;;;6.83;2.93;;;13.50;64.80;;;;;;5051494;28;46396;-62
2022/05/28 03:05:08;;;;;;;7.50;3.40;;;13.40;65.00;;;;;;5053335;28;46353;-63
2022/05/28 03:07:34;;;;;;;6.30;2.80;;;13.30;65.40;;;;;;5048929;28;46492;-61
2022/05/28 03:10:00;;;;;;;9.07;2.97;;;13.20;65.60;;;;;;5053929;28;46830;-61
2022/05/28 03:12:25;;;;;;;4.47;3.20;;;13.20;65.80;;;;;;5056482;28;46385;-61
2022/05/28 03:14:51;;;;;;;5.67;3.70;;;13.10;65.80;;;;;;5051707;28;46417;-62
2022/05/28 03:17:16;;;;;;;5.87;3.70;;;13.00;66.00;;;;;;5051093;28;46425;-61
2022/05/28 03:19:42;;;;;;;7.97;3.43;;;13.00;66.20;;;;;;5048051;28;47949;-61
2022/05/28 03:22:08;;;;;;;8.90;3.90;;;12.90;66.50;;;;;;5053889;28;46442;-62
2022/05/28 03:24:33;;;;;;;6.97;3.57;;;12.80;66.40;;;;;;5053949;28;46373;-62
2022/05/28 03:26:59;;;;;;;6.70;3.70;;;12.80;66.40;;;;;;5053514;28;46382;-61
2022/05/28 03:29:25;;;;;;;6.67;3.23;;;12.80;66.20;;;;;;5048674;28;46740;-61
2022/05/28 03:31:51;;;;;;;5.23;3.07;;;12.70;65.50;;;;;;5051517;28;45853;-61
2022/05/28 03:34:17;;;;;;;9.73;3.53;;;12.70;65.60;;;;;;5053259;28;46370;-62
2022/05/28 03:36:42;;;;;;;5.53;3.60;;;12.70;65.10;;;;;;5054049;28;46348;-61
2022/05/28 03:39:08;;;;;;;11.13;3.93;;;12.60;64.90;;;;;;5053104;28;47344;-61
2022/05/28 03:41:33;;;;;;;6.33;3.50;;;12.60;64.40;;;;;;5051624;28;45815;-61
2022/05/28 03:43:59;;;;;;;6.13;3.53;;;12.60;64.30;;;;;;5057036;28;46362;-62
2022/05/28 03:46:31;;;;;;;6.80;3.47;;;12.60;64.10;;;;;;5050422;28;46587;-61
2022/05/28 03:49:03;;;;;;;8.00;3.83;;;12.60;63.80;;;;;;5053696;28;46370;-62
2022/05/28 03:51:28;;;;;;;5.77;3.37;;;12.60;63.40;;;;;;5050747;28;46445;-60
2022/05/28 03:53:54;;;;;;;6.80;4.03;;;12.60;63.30;;;;;;5051946;28;46236;-62
2022/05/28 03:56:20;;;;;;;7.83;3.63;;;12.60;63.10;;;;;;5054697;28;47013;-62
2022/05/28 03:58:47;;;;;;;8.13;3.80;;;12.50;63.00;;;;;;5045848;28;48890;-63
2022/05/28 04:01:14;;;;;;;10.93;4.00;;;12.70;62.70;;;;;;5052943;28;46384;-63
2022/05/28 04:03:39;;;;;;;12.10;3.40;;;12.60;62.40;;;;;;5051463;28;46363;-63
2022/05/28 04:06:05;;;;;;;8.00;3.63;;;12.40;61.90;;;;;;5053245;28;46664;-62
2022/05/28 04:08:31;;;;;;;10.70;3.53;;;12.30;62.30;;;;;;5050220;28;48264;-62
2022/05/28 04:10:57;;;;;;;10.23;3.30;;;12.20;61.00;;;;;;5054834;28;46443;-61
2022/05/28 04:13:23;;;;;;;9.07;3.13;;;12.10;61.10;;;;;;5050376;28;46389;-62
2022/05/28 04:15:49;;;;;;;13.27;3.90;;;12.20;60.80;;;;;;5054123;28;46408;-61
2022/05/28 04:18:15;;;;;;;9.23;3.83;;;12.10;60.70;;;;;;5051336;28;47366;-62
2022/05/28 04:20:41;;;;;;;13.70;4.00;;;12.10;60.60;;;;;;5049889;28;46393;-60
2022/05/28 04:23:07;;;;;;;10.20;4.20;;;12.10;60.50;;;;;;5053121;28;46720;-63
2022/05/28 04:25:33;;;;;;;9.83;3.97;;;12.20;60.30;;;;;;5051222;28;46665;-62
2022/05/28 04:27:58;;;;;;;12.20;4.20;;;12.20;60.10;;;;;;5051306;28;46391;-63
2022/05/28 04:30:24;;;;;;;16.87;5.43;;;12.10;60.00;;;;;;5047300;28;46531;-61
2022/05/28 04:32:50;;;;;;;16.23;4.70;;;12.10;60.10;;;;;;5054217;28;46449;-61
2022/05/28 04:35:15;;;;;;;10.13;3.63;;;12.10;60.10;;;;;;5046354;28;46303;-63
2022/05/28 04:37:41;;;;;;;14.00;4.20;;;12.20;60.70;;;;;;5051848;28;46350;-62
2022/05/28 04:40:08;;;;;;;8.90;4.27;;;12.30;59.90;;;;;;5045998;28;46302;-61
2022/05/28 04:42:33;;;;;;;11.20;4.23;;;12.40;59.60;;;;;;5044340;28;46310;-62
2022/05/28 04:44:59;;;;;;;11.13;3.90;;;12.60;59.00;;;;;;5052421;28;46703;-62
2022/05/28 04:47:25;;;;;;;10.67;3.47;;;12.80;58.60;;;;;;5043324;28;46407;-62
2022/05/28 04:49:50;;;;;;;8.43;3.40;;;12.90;58.30;;;;;;5052482;28;46441;-62
2022/05/28 04:52:16;;;;;;;14.57;4.50;;;13.00;58.00;;;;;;5049815;28;45824;-63
2022/05/28 04:54:41;;;;;;;8.43;3.70;;;13.10;57.80;;;;;;5052785;28;46591;-61
2022/05/28 04:57:07;;;;;;;8.00;3.97;;;13.20;57.70;;;;;;5049738;28;46589;-61
2022/05/28 04:59:32;;;;;;;10.00;3.60;;;13.30;57.50;;;;;;5049935;28;46844;-63
2022/05/28 05:01:58;;;;;;;12.20;4.50;;;13.30;57.50;;;;;;5049862;28;46439;-62
2022/05/28 05:04:24;;;;;;;16.00;5.07;;;13.20;57.70;;;;;;5048498;28;46436;-62
2022/05/28 05:06:50;;;;;;;11.80;3.80;;;13.10;57.70;;;;;;5054360;28;47960;-61
2022/05/28 05:09:15;;;;;;;11.53;3.73;;;13.00;58.00;;;;;;5048188;28;46353;-63
2022/05/28 05:11:41;;;;;;;7.67;3.73;;;12.90;57.90;;;;;;5052239;28;46340;-61
2022/05/28 05:14:06;;;;;;;8.57;3.33;;;12.90;58.10;;;;;;5049867;28;46771;-62
2022/05/28 05:16:32;;;;;;;14.47;3.93;;;12.90;57.90;;;;;;5046301;28;47094;-62
2022/05/28 05:18:58;;;;;;;13.93;3.80;;;13.00;57.60;;;;;;5047910;28;46376;-62
2022/05/28 05:21:23;;;;;;;14.03;3.70;;;13.10;57.50;;;;;;5050156;28;46429;-62
2022/05/28 05:23:49;;;;;;;11.00;3.30;;;13.20;57.20;;;;;;5052024;28;46480;-62
2022/05/28 05:26:18;;;;;;;13.70;3.50;;;13.10;57.90;;;;;;5046829;28;46334;-62
2022/05/28 05:28:43;;;;;;;8.40;3.40;;;13.10;56.70;;;;;;5051393;28;46466;-61
2022/05/28 05:31:09;;;;;;;10.60;3.27;;;13.00;56.50;;;;;;5049659;28;46496;-62
2022/05/28 05:33:35;;;;;;;10.73;3.77;;;13.10;56.40;;;;;;5055563;28;46393;-63
2022/05/28 05:36:01;;;;;;;12.80;3.60;;;13.20;56.40;;;;;;5050617;28;47014;-62
2022/05/28 05:38:26;;;;;;;7.83;2.90;;;13.30;56.30;;;;;;5047490;28;46363;-61
2022/05/28 05:40:52;;;;;;;16.03;4.20;;;13.40;56.00;;;;;;5049745;28;45907;-61
2022/05/28 05:43:19;;;;;;;13.60;3.87;;;13.40;55.20;;;;;;5049182;28;46700;-61
2022/05/28 05:45:56;;;;;;;13.30;4.17;;;13.40;54.90;;;;;;5047011;28;47092;-61
2022/05/28 05:48:22;;;;;;;12.60;3.93;;;13.30;54.60;;;;;;5049704;28;46558;-62
2022/05/28 05:50:49;;;;;;;7.50;3.10;;;13.40;54.80;;;;;;5046907;28;46517;-63
2022/05/28 05:53:15;;;;;;;11.77;3.70;;;13.40;54.80;;;;;;5051907;28;46940;-61
2022/05/28 05:55:41;;;;;;;10.60;4.30;;;13.30;54.70;;;;;;5054141;28;46592;-61
2022/05/28 05:58:06;;;;;;;10.30;4.50;;;13.20;54.60;;;;;;5054055;28;46319;-62
2022/05/28 06:00:32;;;;;;;11.47;3.50;;;13.10;54.50;;;;;;5052085;28;46409;-61
2022/05/28 06:02:58;;;;;;;15.03;3.67;;;13.10;54.50;;;;;;5054821;28;46366;-60
2022/05/28 06:05:23;;;;;;;13.37;3.73;;;13.30;54.50;;;;;;5051188;28;46910;-61
2022/05/28 06:07:49;;;;;;;17.40;3.53;;;13.60;53.90;;;;;;5052518;28;46485;-63
2022/05/28 06:10:16;;;;;;;10.50;2.83;;;13.90;52.30;;;;;;5049261;28;45837;-61
2022/05/28 06:12:41;;;;;;;10.30;2.73;;;13.80;51.30;;;;;;5051287;28;46618;-62
2022/05/28 06:15:08;;;;;;;9.23;3.13;;;13.70;51.10;;;;;;5053445;28;46413;-61
2022/05/28 06:17:35;;;;;;;8.83;3.20;;;13.50;50.40;;;;;;5052451;28;46311;-61
2022/05/28 06:20:02;;;;;;;8.90;3.00;;;13.40;50.00;;;;;;5049563;28;46407;-61
2022/05/28 06:22:28;;;;;;;12.13;4.00;;;13.30;49.90;;;;;;5053804;28;45835;-62
2022/05/28 06:24:54;;;;;;;8.37;3.03;;;13.40;50.00;;;;;;5050869;28;46961;-61
2022/05/28 06:27:20;;;;;;;9.53;3.07;;;13.70;49.90;;;;;;5049831;28;46455;-61
2022/05/28 06:29:46;;;;;;;11.13;3.37;;;13.80;49.40;;;;;;5055325;28;46632;-61
2022/05/28 06:32:11;;;;;;;10.67;3.33;;;13.90;49.00;;;;;;5048869;28;46444;-61
2022/05/28 06:34:37;;;;;;;12.10;4.40;;;13.90;48.40;;;;;;5055225;28;46290;-63
2022/05/28 06:37:06;;;;;;;13.97;3.60;;;14.20;48.50;;;;;;5052122;28;46414;-61
2022/05/28 06:39:33;;;;;;;15.47;3.17;;;14.50;47.00;;;;;;5047767;28;46356;-61
2022/05/28 06:41:59;;;;;;;11.60;3.60;;;14.40;47.00;;;;;;5046044;28;46298;-61
2022/05/28 06:44:25;;;;;;;14.83;3.10;;;14.30;46.90;;;;;;5047996;28;47015;-61
2022/05/28 06:46:51;;;;;;;14.80;3.10;;;14.70;47.20;;;;;;5050069;28;46448;-62
2022/05/28 06:49:16;;;;;;;14.60;3.37;;;14.80;44.80;;;;;;5050401;28;46290;-61
2022/05/28 06:51:42;;;;;;;15.73;3.70;;;14.40;45.20;;;;;;5048004;28;46362;-62
2022/05/28 06:54:08;;;;;;;8.90;2.60;;;14.40;44.80;;;;;;5052824;28;46939;-61
2022/05/28 06:56:34;;;;;;;8.20;3.20;;;14.60;45.00;;;;;;5049386;28;46421;-61
2022/05/28 06:58:59;;;;;;;16.60;3.20;;;14.50;43.70;;;;;;5049986;28;46370;-62
2022/05/28 07:01:25;;;;;;;7.70;2.73;;;14.30;43.50;;;;;;5053905;28;46311;-61
2022/05/28 07:03:51;;;;;;;11.00;2.67;;;14.10;43.40;;;;;;5050312;28;46417;-62
2022/05/28 07:06:16;;;;;;;10.87;2.90;;;13.90;43.20;;;;;;5050371;28;46306;-61
2022/05/28 07:08:42;;;;;;;11.27;3.40;;;14.00;43.90;;;;;;5045818;28;46321;-61
2022/05/28 07:11:08;;;;;;;9.80;2.83;;;14.00;42.40;;;;;;5056086;28;46510;-61
2022/05/28 07:13:35;;;;;;;12.10;2.70;;;14.30;42.40;;;;;;5051393;28;47289;-61
2022/05/28 07:16:03;;;;;;;9.93;2.43;;;14.60;42.60;;;;;;5049458;28;45878;-62
2022/05/28 07:18:29;;;;;;;7.60;2.43;;;15.20;41.40;;;;;;5048972;28;46357;-62
2022/05/28 07:20:54;;;;;;;11.20;2.53;;;15.60;40.00;;;;;;5049907;28;46475;-63
2022/05/28 07:23:24;;;;;;;12.13;2.20;;;15.70;39.20;;;;;;5048314;28;48179;-61
2022/05/28 07:25:56;;;;;;;10.40;2.60;;;15.90;38.00;;;;;;5049179;28;46397;-62
2022/05/28 07:28:25;;;;;;;6.97;2.23;;;15.40;34.90;;;;;;5052699;28;46367;-60
2022/05/28 07:31:11;;;;;;;12.57;2.70;;;15.20;36.00;;;;;;5048789;28;46610;-61
2022/05/28 07:33:38;;;;;;;7.60;2.30;;;15.80;37.40;;;;;;5047152;28;47067;-61
2022/05/28 07:36:06;;;;;;;7.30;2.60;;;16.10;37.50;;;;;;5051491;28;46432;-61
2022/05/28 07:38:33;;;;;;;6.60;2.30;;;16.10;34.20;;;;;;5047215;28;46326;-62
2022/05/28 07:41:07;;;;;;;9.43;2.23;;;16.10;34.30;;;;;;5050539;28;46470;-61
2022/05/28 07:43:33;;;;;;;16.37;2.33;;;16.00;32.70;;;;;;5046434;28;47437;-62
2022/05/28 07:45:58;;;;;;;8.53;3.20;;;15.40;31.40;;;;;;5053167;28;46265;-61
2022/05/28 07:48:24;;;;;;;6.63;2.33;;;15.20;31.50;;;;;;5051719;28;46385;-62
2022/05/28 07:50:50;;;;;;;7.00;2.40;;;15.30;32.80;;;;;;5049032;28;47496;-61
2022/05/28 07:53:16;;;;;;;7.53;1.80;;;15.30;32.20;;;;;;5053312;28;46358;-64
2022/05/28 07:55:41;;;;;;;10.53;2.50;;;15.30;31.40;;;;;;5058914;28;46365;-62
2022/05/28 07:58:20;;;;;;;5.17;1.83;;;15.30;31.90;;;;;;5048483;28;46472;-62
2022/05/28 08:00:48;;;;;;;7.70;2.47;;;15.60;30.00;;;;;;5055540;28;46420;-61
2022/05/28 08:03:16;;;;;;;6.67;1.63;;;15.60;30.00;;;;;;5046798;28;48257;-62
2022/05/28 08:05:44;;;;;;;7.67;1.73;;;15.40;28.00;;;;;;5049962;28;46491;-62
2022/05/28 08:08:11;;;;;;;8.20;2.20;;;15.00;27.60;;;;;;5044443;28;46454;-63
2022/05/28 08:10:38;;;;;;;5.93;1.60;;;15.00;28.00;;;;;;5046517;28;46369;-61
2022/05/28 08:13:09;;;;;;;8.27;2.00;;;15.10;28.10;;;;;;5046658;28;46768;-63
2022/05/28 08:15:37;;;;;;;6.43;1.60;;;15.10;28.60;;;;;;5050819;28;46369;-62
2022/05/28 08:18:04;;;;;;;7.90;1.80;;;15.60;29.30;;;;;;5044094;28;46507;-61
2022/05/28 08:23:14;;;;;;;7.43;1.60;;;15.30;27.80;;;;;;5048444;28;46446;-61
2022/05/28 08:25:41;;;;;;;14.10;1.67;;;15.20;28.40;;;;;;5053271;28;45820;-61
2022/05/28 08:28:12;;;;;;;5.57;1.43;;;15.40;27.70;;;;;;5052415;28;46562;-61
2022/05/28 08:30:38;;;;;;;5.83;1.90;;;15.30;27.50;;;;;;5051282;28;46327;-61
2022/05/28 08:33:05;;;;;;;5.37;1.50;;;15.10;26.50;;;;;;5053182;28;47240;-61
2022/05/28 08:35:30;;;;;;;6.07;1.60;;;15.30;26.70;;;;;;5049301;28;46438;-61
2022/05/28 08:37:56;;;;;;;6.77;1.70;;;15.30;26.50;;;;;;5051440;28;46548;-61
2022/05/28 08:40:23;;;;;;;6.47;1.90;;;15.20;24.60;;;;;;5052778;28;46554;-62
2022/05/28 08:42:50;;;;;;;4.93;1.20;;;15.00;25.60;;;;;;5053116;28;47082;-62
2022/05/28 08:45:17;;;;;;;6.07;1.47;;;14.80;25.60;;;;;;5056757;28;46177;-61
2022/05/28 08:47:47;;;;;;;10.70;1.50;;;14.80;25.00;;;;;;5054415;28;46268;-63
2022/05/28 08:50:14;;;;;;;6.40;1.37;;;15.00;25.40;;;;;;5055857;28;46524;-59
2022/05/28 08:52:46;;;;;;;6.90;1.57;;;14.80;24.60;;;;;;5055208;28;46480;-60
2022/05/28 08:55:19;;;;;;;4.70;1.33;;;14.80;24.20;;;;;;5054341;28;45819;-59
2022/05/28 08:57:53;;;;;;;2.73;1.23;;;14.90;25.00;;;;;;5054736;28;46333;-60
2022/05/28 09:00:37;;;;;;;6.53;1.73;;;15.30;25.60;;;;;;5052821;28;46401;-62
2022/05/28 09:03:10;;;;;;;5.60;1.33;;;15.40;25.40;;;;;;5054528;28;46556;-61
2022/05/28 09:05:50;;;;;;;7.50;1.20;;;15.40;24.90;;;;;;5056960;28;46409;-62
2022/05/28 09:08:36;;;;;;;6.60;1.63;;;15.60;25.20;;;;;;5053665;28;46393;-62
2022/05/28 09:11:05;;;;;;;6.27;1.80;;;15.90;25.20;;;;;;5058148;28;47566;-63
2022/05/28 09:13:52;;;;;;;4.17;1.33;;;16.00;25.70;;;;;;5051686;28;47163;-61
2022/05/28 09:16:37;;;;;;;8.07;1.80;;;16.30;25.70;;;;;;5054670;28;46482;-60
2022/05/28 09:19:11;;;;;;;8.60;1.20;;;16.10;26.00;;;;;;5052217;28;46397;-63
2022/05/28 09:21:39;;;;;;;7.03;1.53;;;16.10;25.60;;;;;;5047730;28;46311;-60
2022/05/28 09:24:12;;;;;;;7.87;2.00;;;16.00;24.80;;;;;;5052908;28;46707;-61
2022/05/28 09:26:58;;;;;;;6.83;1.70;;;15.80;24.70;;;;;;5050884;28;46544;-61
2022/05/28 09:30:01;;;;;;;5.30;1.50;;;15.80;24.90;;;;;;5050879;28;46458;-62
2022/05/28 09:32:54;;;;;;;7.23;1.73;;;16.10;25.00;;;;;;5051463;28;46491;-61
2022/05/28 09:35:25;;;;;;;3.97;1.20;;;16.30;25.20;;;;;;5049660;28;46626;-62
2022/05/28 09:38:04;;;;;;;8.73;1.80;;;16.20;25.20;;;;;;5051216;28;46379;-61
2022/05/28 09:40:45;;;;;;;10.20;1.70;;;16.20;26.60;;;;;;5054023;28;46411;-61
2022/05/28 09:43:29;;;;;;;8.33;1.50;;;16.20;27.20;;;;;;5052152;28;46694;-61
2022/05/28 09:46:16;;;;;;;5.50;1.60;;;16.60;27.00;;;;;;5054017;28;46680;-62
2022/05/28 09:48:42;;;;;;;6.17;1.50;;;17.00;26.20;;;;;;5053537;28;46685;-63
2022/05/28 09:51:25;;;;;;;6.63;1.50;;;17.40;25.70;;;;;;5053090;28;46170;-62
2022/05/28 09:54:23;;;;;;;8.10;1.27;;;17.40;24.00;;;;;;5053648;28;46488;-61
2022/05/28 09:57:09;;;;;;;3.60;1.40;;;17.50;24.50;;;;;;5052129;28;49244;-62
2022/05/28 09:59:37;;;;;;;5.27;1.63;;;17.20;23.40;;;;;;5050307;28;46766;-60
2022/05/28 10:02:22;;;;;;;4.73;1.47;;;16.80;24.00;;;;;;5055162;28;46339;-60
2022/05/28 10:05:11;;;;;;;4.43;1.30;;;16.90;24.70;;;;;;5050766;28;46569;-61
2022/05/28 10:07:52;;;;;;;5.30;1.27;;;16.80;22.20;;;;;;5051798;28;46437;-61
2022/05/28 10:10:29;;;;;;;4.53;1.10;;;16.40;22.10;;;;;;5052038;28;46365;-60
2022/05/28 10:13:16;;;;;;;2.90;1.20;;;16.80;22.70;;;;;;5052741;28;46195;-61
2022/05/28 10:15:52;;;;;;;6.17;1.57;;;16.60;21.80;;;;;;5052206;28;46703;-61
2022/05/28 10:18:36;;;;;;;3.40;1.43;;;16.50;22.60;;;;;;5051882;28;46437;-61
2022/05/28 10:21:02;;;;;;;3.60;1.13;;;16.40;22.30;;;;;;5052963;28;46465;-61
2022/05/28 10:23:28;;;;;;;5.03;1.30;;;16.60;23.00;;;;;;5057310;28;45814;-61
2022/05/28 10:25:53;;;;;;;6.93;1.20;;;16.70;22.30;;;;;;5057594;28;46719;-61
2022/05/28 10:28:42;;;;;;;3.13;1.10;;;16.90;22.40;;;;;;5059133;28;48872;-60
2022/05/28 10:31:27;;;;;;;6.00;1.53;;;16.80;22.10;;;;;;5050823;28;46541;-60
2022/05/28 10:33:53;;;;;;;5.20;1.53;;;17.00;21.40;;;;;;5052164;28;46490;-61
2022/05/28 10:36:23;;;;;;;5.73;1.70;;;17.30;21.70;;;;;;5048329;28;46287;-60
2022/05/28 10:38:49;;;;;;;3.37;1.30;;;17.00;20.30;;;;;;5052778;28;47921;-61
2022/05/28 10:41:25;;;;;;;6.00;1.10;;;17.20;20.50;;;;;;5053289;28;46632;-61
2022/05/28 10:43:51;;;;;;;5.33;1.20;;;17.50;20.70;;;;;;5057310;28;45755;-61
2022/05/28 10:46:45;;;;;;;9.63;1.50;;;18.10;21.10;;;;;;5057976;28;46557;-61
2022/05/28 10:49:38;;;;;;;3.60;1.10;;;18.40;21.30;;;;;;5051424;28;46354;-61
2022/05/28 10:52:21;;;;;;;4.70;1.30;;;18.90;21.70;;;;;;5055578;28;46492;-61
2022/05/28 10:54:58;;;;;;;4.90;1.40;;;19.20;21.90;;;;;;5058392;28;46371;-61
2022/05/28 10:57:32;;;;;;;4.83;1.50;;;19.50;20.70;;;;;;5053390;28;45894;-60
2022/05/28 11:00:04;;;;;;;6.47;1.27;;;20.00;19.20;;;;;;5052674;28;46645;-61
2022/05/28 11:03:23;;;;;;;4.53;1.17;;;19.80;19.70;;;;;;5052860;28;46433;-60
2022/05/28 11:06:15;;;;;;;8.03;2.10;;;19.00;18.10;;;;;;5037333;28;46435;-61
2022/05/28 11:09:17;;;;;;;5.60;1.30;;;18.20;19.10;;;;;;5051031;28;45893;-61
2022/05/28 11:12:17;;;;;;;4.83;1.10;;;18.40;19.30;;;;;;5050265;28;46665;-61
2022/05/28 11:15:00;;;;;;;4.43;1.30;;;18.50;18.60;;;;;;5052806;28;46425;-61
2022/05/28 11:17:42;;;;;;;4.20;1.20;;;18.30;18.40;;;;;;5050211;28;46711;-61
2022/05/28 11:20:45;;;;;;;3.47;1.00;;;18.10;18.40;;;;;;5049728;28;46385;-60
2022/05/28 11:23:45;;;;;;;4.57;1.27;;;17.90;17.90;;;;;;5048303;28;46598;-61
2022/05/28 11:26:32;;;;;;;5.37;1.37;;;18.30;18.60;;;;;;5051493;28;46425;-61
2022/05/28 11:29:14;;;;;;;8.00;2.20;;;18.60;18.10;;;;;;5049428;28;46385;-61
2022/05/28 11:31:54;;;;;;;7.10;1.20;;;18.70;16.80;;;;;;5052689;28;46393;-62
2022/05/28 11:34:52;;;;;;;7.40;1.20;;;18.90;17.70;;;;;;5052113;28;47065;-62
2022/05/28 11:37:23;;;;;;;3.17;1.10;;;19.50;18.40;;;;;;5049691;28;46445;-60
2022/05/28 11:40:10;;;;;;;2.80;1.10;;;20.20;18.20;;;;;;5051727;28;45936;-62
2022/05/28 11:42:51;;;;;;;2.73;1.30;;;20.10;16.90;;;;;;5050337;28;46460;-61
2022/05/28 11:45:36;;;;;;;4.47;1.23;;;19.60;16.90;;;;;;5054843;28;47207;-61
2022/05/28 11:48:13;;;;;;;4.53;1.40;;;19.60;16.60;;;;;;5045836;28;46740;-61
2022/05/28 11:53:58;;;;;;;6.77;1.47;;;19.50;16.10;;;;;;5047729;28;46140;-60
2022/05/28 11:56:28;;;;;;;4.00;1.10;;;19.70;16.20;;;;;;5049915;28;46568;-61
2022/05/28 11:59:11;;;;;;;4.53;1.27;;;19.60;16.00;;;;;;5048509;28;46698;-60
2022/05/28 12:01:43;;;;;;;4.13;1.37;;;19.70;16.30;;;;;;5049298;28;46421;-61
2022/05/28 12:04:10;;;;;;;4.00;1.13;;;19.70;16.30;;;;;;5051699;28;46458;-60
2022/05/28 12:06:39;;;;;;;3.73;1.37;;;19.60;15.60;;;;;;5053041;28;46522;-61
2022/05/28 12:09:19;;;;;;;2.60;1.10;;;19.90;15.90;;;;;;5050590;28;46791;-61
2022/05/28 12:12:16;;;;;;;3.30;1.10;;;19.80;14.50;;;;;;5051149;28;46616;-60
2022/05/28 12:14:47;;;;;;;5.30;1.17;;;20.00;14.90;;;;;;5046829;28;46399;-61
2022/05/28 12:17:19;;;;;;;6.10;1.10;;;20.40;15.20;;;;;;5050125;28;47271;-61
2022/05/28 12:19:58;;;;;;;2.93;1.20;;;20.70;14.90;;;;;;5046909;28;46574;-60
2022/05/28 12:22:41;;;;;;;6.37;1.27;;;20.50;14.30;;;;;;5052590;28;46339;-60
2022/05/28 12:25:13;;;;;;;5.67;1.20;;;20.40;14.70;;;;;;5053399;28;45833;-61
2022/05/28 12:28:07;;;;;;;4.13;1.23;;;20.60;15.10;;;;;;5049726;28;46620;-61
2022/05/28 12:30:37;;;;;;;5.67;1.30;;;20.70;14.80;;;;;;5049258;28;46373;-60
2022/05/28 12:33:03;;;;;;;7.57;1.37;;;20.80;14.60;;;;;;5052595;28;46697;-60
2022/05/28 12:35:57;;;;;;;4.33;1.47;;;20.40;14.60;;;;;;5050304;28;46397;-61
2022/05/28 12:38:47;;;;;;;6.00;1.40;;;19.60;13.40;;;;;;5053048;28;46599;-61
2022/05/28 12:41:34;;;;;;;4.90;1.20;;;19.40;14.40;;;;;;5050097;28;46541;-61
2022/05/28 12:44:20;;;;;;;4.77;1.47;;;19.60;15.10;;;;;;5051183;28;46561;-62
2022/05/28 12:46:56;;;;;;;6.13;1.33;;;19.60;15.30;;;;;;5047151;28;46615;-62
2022/05/28 12:49:36;;;;;;;6.30;1.40;;;19.70;15.50;;;;;;5051121;28;47107;-58
2022/05/28 12:52:48;;;;;;;5.40;1.13;;;19.70;14.90;;;;;;5059018;28;46495;-62
2022/05/28 12:55:38;;;;;;;4.30;1.33;;;19.60;14.60;;;;;;5054918;28;46353;-61
2022/05/28 12:58:07;;;;;;;5.93;1.37;;;19.60;14.90;;;;;;5056412;28;46440;-61
2022/05/28 13:00:48;;;;;;;3.20;1.00;;;19.20;13.90;;;;;;5048386;28;46433;-60
2022/05/28 13:03:16;;;;;;;6.20;1.20;;;18.70;14.40;;;;;;5053038;28;46806;-59
2022/05/28 13:05:52;;;;;;;5.10;1.27;;;19.20;14.60;;;;;;5050341;28;46432;-62
2022/05/28 13:08:27;;;;;;;5.03;1.30;;;19.20;14.90;;;;;;5053757;28;46733;-61
2022/05/28 13:10:59;;;;;;;4.17;1.20;;;18.60;14.40;;;;;;5057297;28;46303;-60
2022/05/28 13:13:27;;;;;;;2.93;1.37;;;18.50;15.20;;;;;;5054459;28;46477;-62
2022/05/28 13:16:14;;;;;;;3.63;1.10;;;18.30;15.20;;;;;;5050687;28;46482;-60